Time;durP1;ratioP1;P1;durP2;ratioP2;P2;SDS_P1;SDS_P2;PMS_P1;PMS_P2;Temp;Humidity;BMP_temperature;BMP_pressure;BME280_temperature;BME280_humidity;BME280_pressure;Samples;Min_cycle;Max_cycle;Signal;HPM_P1;HPM_P2
2023/01/10 00:00:26;;;;;;;4.33;2.80;;;;;;;4.57;100.00;99912.97;4892085;29;20058;-83
2023/01/10 00:02:53;;;;;;;5.03;3.03;;;;;;;4.57;100.00;99906.88;4915079;29;20064;-83
2023/01/10 00:05:19;;;;;;;4.37;3.10;;;;;;;4.56;100.00;99910.38;4932194;29;20123;-83
2023/01/10 00:07:48;;;;;;;4.57;3.47;;;;;;;4.56;100.00;99923.47;4928435;29;20079;-82
2023/01/10 00:10:15;;;;;;;6.07;3.57;;;;;;;4.57;100.00;99931.28;4902263;29;20090;-82
2023/01/10 00:15:33;;;;;;;6.60;3.40;;;;;;;4.53;100.00;99943.50;4932150;29;20039;-82
2023/01/10 00:18:00;;;;;;;5.53;2.90;;;;;;;4.55;100.00;99940.91;4933270;29;20043;-82
2023/01/10 00:20:28;;;;;;;5.47;3.33;;;;;;;4.53;100.00;99955.72;4957632;28;20130;-82
2023/01/10 00:22:58;;;;;;;8.03;4.00;;;;;;;4.55;100.00;99953.97;4929485;29;20253;-83
2023/01/10 00:25:25;;;;;;;5.43;3.53;;;;;;;4.57;100.00;99949.59;4939830;28;20318;-82
2023/01/10 00:30:53;;;;;;;8.40;5.33;;;;;;;4.55;100.00;99960.97;4911724;29;20051;-82
2023/01/10 00:33:23;;;;;;;7.33;3.80;;;;;;;4.66;100.00;99965.22;4924575;29;20051;-82
2023/01/10 00:35:49;;;;;;;7.37;3.73;;;;;;;4.66;100.00;99961.75;4921122;29;20047;-82
2023/01/10 00:38:17;;;;;;;12.03;4.00;;;;;;;4.65;100.00;99968.72;4903214;29;20623;-82
2023/01/10 00:40:45;;;;;;;9.53;4.43;;;;;;;4.78;100.00;99972.97;4895702;29;20043;-82
2023/01/10 00:46:01;;;;;;;10.07;5.37;;;;;;;4.80;100.00;99972.97;4926917;29;20410;-81
2023/01/10 00:48:31;;;;;;;12.57;5.20;;;;;;;4.80;100.00;99979.06;4902809;29;20044;-82
2023/01/10 00:50:58;;;;;;;9.57;5.27;;;;;;;4.86;100.00;99987.75;4901300;29;20039;-83
2023/01/10 00:53:24;;;;;;;12.17;4.80;;;;;;;4.83;100.00;99987.78;4918302;29;20044;-82
2023/01/10 00:55:53;;;;;;;10.60;5.57;;;;;;;4.84;100.00;99994.75;4921285;29;20051;-82
2023/01/10 00:58:21;;;;;;;11.73;5.40;;;;;;;5.10;100.00;99998.00;4932446;29;20059;-81
2023/01/10 01:00:48;;;;;;;11.97;5.57;;;;;;;5.11;100.00;99991.88;4918681;29;20409;-82
2023/01/10 01:03:17;;;;;;;11.70;5.47;;;;;;;5.02;100.00;99998.06;4914303;29;20134;-83
2023/01/10 01:05:45;;;;;;;9.90;6.00;;;;;;;5.07;100.00;100000.66;4933399;29;20907;-81
2023/01/10 01:08:13;;;;;;;13.27;6.43;;;;;;;5.12;100.00;100011.06;4906827;29;20130;-82
2023/01/10 01:10:40;;;;;;;14.33;6.57;;;;;;;5.14;100.00;100006.72;4921134;29;20039;-82
2023/01/10 01:13:13;;;;;;;12.40;6.90;;;;;;;5.09;100.00;100018.09;4923596;29;20545;-82
2023/01/10 01:15:40;;;;;;;13.07;6.50;;;;;;;5.13;100.00;100020.66;4933813;29;20039;-82
2023/01/10 01:18:10;;;;;;;11.17;7.20;;;;;;;5.16;100.00;100013.66;4917282;29;20118;-82
2023/01/10 01:20:40;;;;;;;12.77;6.27;;;;;;;5.13;100.00;100018.94;4928281;29;20523;-81
2023/01/10 01:23:07;;;;;;;11.30;6.67;;;;;;;5.21;100.00;100026.72;4926345;29;20057;-82
2023/01/10 01:25:34;;;;;;;12.70;6.83;;;;;;;5.18;100.00;100027.63;4917518;29;20040;-82
2023/01/10 01:28:08;;;;;;;13.17;6.70;;;;;;;5.19;100.00;100028.47;4900722;29;20518;-79
2023/01/10 01:30:35;;;;;;;11.40;6.33;;;;;;;5.23;100.00;100033.69;4914848;29;20099;-81
2023/01/10 01:33:02;;;;;;;12.10;5.67;;;;;;;5.24;100.00;100035.44;4942370;28;20086;-83
2023/01/10 01:35:28;;;;;;;11.70;6.23;;;;;;;5.19;100.00;100041.56;4907402;29;20056;-81
2023/01/10 01:37:55;;;;;;;12.17;6.40;;;;;;;5.14;100.00;100046.00;4924955;29;20533;-82
2023/01/10 01:40:22;;;;;;;13.10;6.73;;;;;;;5.16;100.00;100052.09;4921759;29;20455;-83
2023/01/10 01:42:54;;;;;;;10.30;5.67;;;;;;;5.18;100.00;100056.41;4933696;29;20516;-81
2023/01/10 01:45:21;;;;;;;14.50;6.73;;;;;;;5.17;100.00;100059.06;4911934;29;20050;-80
2023/01/10 01:48:00;;;;;;;12.37;7.20;;;;;;;5.14;100.00;100062.56;4941004;28;20043;-82
2023/01/10 01:50:30;;;;;;;10.70;6.53;;;;;;;5.08;100.00;100078.31;4919225;29;20036;-82
2023/01/10 01:52:58;;;;;;;14.07;5.80;;;;;;;5.13;100.00;100075.66;4922584;29;20051;-81
2023/01/10 01:55:26;;;;;;;11.33;6.60;;;;;;;5.08;100.00;100076.56;4943525;29;20100;-81
2023/01/10 01:57:54;;;;;;;12.40;6.93;;;;;;;5.08;100.00;100084.44;4932018;29;20047;-83
2023/01/10 02:00:21;;;;;;;13.53;6.13;;;;;;;5.26;100.00;100083.41;4938224;29;20495;-83
2023/01/10 02:02:53;;;;;;;13.37;6.73;;;;;;;5.19;100.00;100092.19;4915166;29;20051;-82
2023/01/10 02:05:30;;;;;;;11.93;6.97;;;;;;;5.19;100.00;100080.84;4949537;28;20568;-81
2023/01/10 02:07:58;;;;;;;13.20;6.77;;;;;;;5.20;100.00;100088.69;4937662;29;20130;-83
2023/01/10 02:10:31;;;;;;;13.00;7.03;;;;;;;5.25;100.00;100088.66;4906470;29;20040;-80
2023/01/10 02:13:01;;;;;;;15.40;7.70;;;;;;;5.27;100.00;100093.00;4919935;29;20055;-81
2023/01/10 02:15:28;;;;;;;12.33;6.50;;;;;;;5.09;100.00;100099.25;4914889;29;20063;-83
2023/01/10 02:17:56;;;;;;;10.90;6.67;;;;;;;5.12;100.00;100097.47;4917445;29;20059;-83
2023/01/10 02:20:23;;;;;;;11.93;6.30;;;;;;;5.07;100.00;100103.63;4952172;29;20050;-83
2023/01/10 02:23:02;;;;;;;16.73;7.60;;;;;;;5.04;100.00;100108.00;4927414;29;20039;-82
2023/01/10 02:25:51;;;;;;;11.53;6.27;;;;;;;5.06;100.00;100112.38;4911077;29;20047;-81
2023/01/10 02:28:50;;;;;;;13.97;7.60;;;;;;;5.14;100.00;100122.81;4919825;29;20048;-83
2023/01/10 02:31:25;;;;;;;15.10;7.57;;;;;;;5.00;100.00;100120.25;4920864;29;20048;-81
2023/01/10 02:34:09;;;;;;;14.77;8.30;;;;;;;5.11;100.00;100125.41;4956329;28;20139;-82
2023/01/10 02:36:54;;;;;;;15.05;7.63;;;;;;;5.02;100.00;100121.13;4918055;29;20055;-82
2023/01/10 02:39:43;;;;;;;14.20;7.40;;;;;;;5.01;100.00;100124.63;4935036;29;20143;-82
2023/01/10 02:42:36;;;;;;;14.57;8.00;;;;;;;5.09;100.00;100124.56;4951062;28;20598;-82
2023/01/10 02:45:08;;;;;;;14.90;7.77;;;;;;;5.06;100.00;100133.31;4927056;29;20051;-82
2023/01/10 02:47:39;;;;;;;17.30;7.53;;;;;;;4.99;100.00;100135.97;4921625;29;20039;-82
2023/01/10 02:50:40;;;;;;;12.50;6.73;;;;;;;5.00;100.00;100143.81;4952716;29;20054;-83
2023/01/10 02:53:18;;;;;;;12.83;6.80;;;;;;;4.89;100.00;100152.63;4926209;29;20450;-83
2023/01/10 02:55:59;;;;;;;16.60;8.03;;;;;;;4.82;100.00;100167.50;4935532;29;20062;-82
2023/01/10 02:59:00;;;;;;;15.30;7.87;;;;;;;4.86;100.00;100174.44;4924586;29;20046;-82
2023/01/10 03:01:45;;;;;;;14.93;7.60;;;;;;;4.85;100.00;100177.06;4919900;29;20091;-82
2023/01/10 03:04:36;;;;;;;15.97;7.63;;;;;;;4.97;100.00;100182.25;4919187;29;20518;-81
2023/01/10 03:07:21;;;;;;;15.80;7.47;;;;;;;5.04;100.00;100191.78;4922113;29;20058;-83
2023/01/10 03:09:55;;;;;;;15.20;7.80;;;;;;;5.01;100.00;100187.44;4926196;29;20486;-81
2023/01/10 03:12:34;;;;;;;14.05;7.68;;;;;;;5.06;100.00;100193.53;4921942;29;20048;-82
2023/01/10 03:15:03;;;;;;;16.47;7.70;;;;;;;4.96;100.00;100194.47;4933326;29;20040;-83
2023/01/10 03:17:30;;;;;;;15.47;7.83;;;;;;;5.00;100.00;100206.66;4916106;29;20051;-81
2023/01/10 03:20:00;;;;;;;12.53;7.33;;;;;;;4.95;100.00;100197.06;4954911;28;20050;-81
2023/01/10 03:22:28;;;;;;;14.20;7.00;;;;;;;5.16;100.00;100211.81;4919272;29;20052;-81
2023/01/10 03:24:57;;;;;;;17.57;7.97;;;;;;;5.11;100.00;100208.34;4922094;29;20450;-82
2023/01/10 03:27:36;;;;;;;15.27;7.63;;;;;;;5.03;100.00;100214.47;4933325;29;20396;-83
2023/01/10 03:30:25;;;;;;;14.63;7.43;;;;;;;5.01;100.00;100229.34;4960305;28;20035;-81
2023/01/10 03:32:54;;;;;;;17.87;8.57;;;;;;;5.05;100.00;100236.31;4908720;29;20503;-81
2023/01/10 03:35:24;;;;;;;14.20;7.07;;;;;;;5.18;100.00;100244.09;4922560;29;20435;-83
2023/01/10 03:38:22;;;;;;;16.63;7.80;;;;;;;5.19;100.00;100256.31;4944773;29;20035;-83
2023/01/10 03:40:55;;;;;;;17.60;8.07;;;;;;;5.13;100.00;100261.56;4917067;29;20055;-81
2023/01/10 03:46:36;;;;;;;18.77;8.60;;;;;;;5.15;100.00;100271.16;4943815;28;20059;-82
2023/01/10 03:49:04;;;;;;;16.17;8.50;;;;;;;5.19;100.00;100274.63;4909111;29;20039;-82
2023/01/10 03:51:31;;;;;;;16.43;7.47;;;;;;;5.22;100.00;100274.63;4922382;28;20156;-83
2023/01/10 03:54:00;;;;;;;17.37;7.90;;;;;;;5.19;100.00;100280.75;4944467;29;20058;-81
2023/01/10 03:56:26;;;;;;;19.37;8.43;;;;;;;5.13;100.00;100286.03;4929122;29;20055;-82
2023/01/10 03:58:53;;;;;;;22.63;8.97;;;;;;;5.10;100.00;100293.88;4900230;29;20044;-82
2023/01/10 04:01:20;;;;;;;17.07;8.43;;;;;;;5.18;100.00;100299.09;4888105;29;20051;-84
2023/01/10 04:03:46;;;;;;;18.93;9.73;;;;;;;5.26;100.00;100303.41;4918318;29;20059;-83
2023/01/10 04:06:13;;;;;;;15.77;8.57;;;;;;;5.14;100.00;100308.72;4938179;29;20040;-82
2023/01/10 04:08:40;;;;;;;17.87;8.53;;;;;;;5.15;100.00;100314.81;4940490;29;20039;-82
2023/01/10 04:11:07;;;;;;;16.90;8.43;;;;;;;5.07;100.00;100320.94;4928345;29;20070;-83
2023/01/10 04:13:33;;;;;;;16.83;8.03;;;;;;;5.03;100.00;100320.94;4923521;29;20043;-82
2023/01/10 04:16:00;;;;;;;17.93;9.37;;;;;;;5.01;100.00;100320.09;4937940;29;20040;-83
2023/01/10 04:18:27;;;;;;;17.63;7.93;;;;;;;4.98;100.00;100334.06;4911287;29;20095;-82
2023/01/10 04:20:53;;;;;;;18.03;7.97;;;;;;;4.97;100.00;100331.47;4903670;29;20051;-81
2023/01/10 04:23:20;;;;;;;17.53;8.13;;;;;;;4.93;100.00;100340.19;4903503;29;20134;-83
2023/01/10 04:25:47;;;;;;;17.40;8.43;;;;;;;4.88;100.00;100353.31;4904845;29;20050;-82
2023/01/10 04:28:14;;;;;;;16.70;7.87;;;;;;;4.93;100.00;100359.38;4915632;29;20044;-81
2023/01/10 04:30:40;;;;;;;15.30;8.23;;;;;;;4.88;100.00;100361.16;4902365;29;20036;-83
2023/01/10 04:33:09;;;;;;;14.90;7.97;;;;;;;4.90;100.00;100363.78;4936071;29;20819;-83
2023/01/10 04:35:35;;;;;;;17.73;8.60;;;;;;;4.87;100.00;100366.38;4935532;29;20032;-81
2023/01/10 04:38:02;;;;;;;15.27;7.83;;;;;;;4.93;100.00;100371.59;4917293;29;20048;-82
2023/01/10 04:40:30;;;;;;;16.43;8.30;;;;;;;4.97;100.00;100374.22;4913059;29;20051;-83
2023/01/10 04:42:56;;;;;;;18.47;9.03;;;;;;;5.01;100.00;100382.94;4951897;28;20048;-82
2023/01/10 04:45:23;;;;;;;15.97;7.57;;;;;;;4.88;100.00;100384.72;4920415;29;20059;-80
2023/01/10 04:47:50;;;;;;;15.43;8.43;;;;;;;4.93;100.00;100388.19;4919776;29;20054;-82
2023/01/10 04:50:17;;;;;;;15.33;8.63;;;;;;;4.89;100.00;100396.94;4909661;29;20046;-82
2023/01/10 04:52:44;;;;;;;14.53;7.63;;;;;;;4.86;100.00;100407.38;4903943;29;20047;-82
2023/01/10 04:55:10;;;;;;;19.30;9.87;;;;;;;4.91;100.00;100407.38;4918108;29;20043;-83
2023/01/10 04:57:37;;;;;;;16.17;8.03;;;;;;;4.83;100.00;100411.75;4933229;29;20044;-82
2023/01/10 05:00:05;;;;;;;17.53;7.37;;;;;;;4.78;100.00;100422.22;4906110;29;20043;-83
2023/01/10 05:02:31;;;;;;;18.43;9.67;;;;;;;4.84;100.00;100421.34;4931243;29;20039;-82
2023/01/10 05:04:58;;;;;;;19.50;8.63;;;;;;;4.84;100.00;100423.97;4908538;29;20040;-82
2023/01/10 05:07:25;;;;;;;17.20;8.13;;;;;;;4.77;100.00;100433.56;4915913;29;20527;-82
2023/01/10 05:09:51;;;;;;;17.90;9.20;;;;;;;4.86;100.00;100433.56;4917118;29;20055;-83
2023/01/10 05:12:18;;;;;;;17.20;8.90;;;;;;;4.86;100.00;100446.63;4928037;29;20043;-82
2023/01/10 05:14:44;;;;;;;18.70;9.33;;;;;;;4.85;100.00;100455.38;4933203;29;20114;-82
2023/01/10 05:17:11;;;;;;;13.70;7.70;;;;;;;4.79;100.00;100464.13;4927784;29;20487;-81
2023/01/10 05:19:38;;;;;;;15.57;8.07;;;;;;;4.75;100.00;100451.88;4910612;29;21862;-82
2023/01/10 05:22:04;;;;;;;13.97;7.03;;;;;;;4.89;100.00;100472.84;4916208;29;20447;-82
2023/01/10 05:24:31;;;;;;;14.80;7.97;;;;;;;4.84;100.00;100471.94;4925412;29;20052;-81
2023/01/10 05:26:58;;;;;;;15.83;8.67;;;;;;;4.78;100.00;100470.19;4924947;29;20114;-82
2023/01/10 05:29:24;;;;;;;12.70;7.03;;;;;;;4.69;100.00;100472.81;4939068;29;20044;-83
2023/01/10 05:31:51;;;;;;;12.90;7.33;;;;;;;4.68;100.00;100476.31;4998956;23;20110;-85
2023/01/10 05:34:18;;;;;;;15.90;7.93;;;;;;;4.63;100.00;100471.97;4923961;29;20505;-88
2023/01/10 05:36:44;;;;;;;14.07;7.00;;;;;;;4.59;100.00;100483.28;4920069;29;20414;-87
2023/01/10 05:39:12;;;;;;;11.83;6.93;;;;;;;4.58;100.00;100484.16;4908950;29;20498;-86
2023/01/10 05:41:39;;;;;;;16.07;7.50;;;;;;;4.58;100.00;100498.13;4916953;29;20059;-86
2023/01/10 05:44:06;;;;;;;15.27;7.27;;;;;;;4.52;100.00;100495.47;4915332;29;20052;-87
2023/01/10 05:46:33;;;;;;;17.03;7.83;;;;;;;4.59;100.00;100501.59;4887526;29;20048;-86
2023/01/10 05:49:00;;;;;;;13.37;7.53;;;;;;;4.52;100.00;100503.31;4930891;29;20622;-87
2023/01/10 05:51:27;;;;;;;13.83;7.17;;;;;;;4.52;100.00;100512.03;4919648;29;20058;-86
2023/01/10 05:53:53;;;;;;;13.97;7.30;;;;;;;4.49;100.00;100519.03;4889533;29;20051;-86
2023/01/10 05:56:20;;;;;;;15.87;7.70;;;;;;;4.44;100.00;100524.25;4901153;29;20084;-89
2023/01/10 05:58:47;;;;;;;15.50;8.20;;;;;;;4.37;100.00;100526.81;4913455;29;20048;-86
2023/01/10 06:01:19;;;;;;;14.53;8.10;;;;;;;4.37;100.00;100525.13;4868323;29;20052;-87
2023/01/10 06:03:46;;;;;;;16.67;9.87;;;;;;;4.43;100.00;100537.31;4894332;29;20072;-87
2023/01/10 06:06:13;;;;;;;17.47;10.43;;;;;;;4.45;100.00;100533.81;4899616;29;20506;-87
2023/01/10 06:08:40;;;;;;;20.67;10.77;;;;;;;4.49;100.00;100542.56;4913335;29;20135;-87
2023/01/10 06:11:08;;;;;;;16.87;10.87;;;;;;;4.45;100.00;100544.28;4884706;29;20047;-86
2023/01/10 06:13:35;;;;;;;18.93;11.03;;;;;;;4.39;100.00;100556.50;4910193;29;20150;-87
2023/01/10 06:16:02;;;;;;;17.20;9.33;;;;;;;4.39;100.00;100551.28;4899366;29;20044;-86
2023/01/10 06:18:28;;;;;;;17.47;8.97;;;;;;;4.47;100.00;100565.25;4890721;29;20127;-86
2023/01/10 06:20:55;;;;;;;16.57;9.33;;;;;;;4.53;100.00;100565.25;4903719;29;20055;-88
2023/01/10 06:23:23;;;;;;;15.97;9.53;;;;;;;4.46;100.00;100576.59;4903876;29;20054;-86
2023/01/10 06:25:50;;;;;;;15.43;8.57;;;;;;;4.38;100.00;100583.53;4919053;29;20505;-86
2023/01/10 06:28:17;;;;;;;14.03;8.40;;;;;;;4.35;100.00;100581.75;4903764;29;20142;-86
2023/01/10 06:30:43;;;;;;;17.57;10.23;;;;;;;4.42;100.00;100585.28;4903472;29;20080;-87
2023/01/10 06:34:28;;;;;;;19.97;12.67;;;;;;;4.47;100.00;100594.03;5109975;27;20376;-87
2023/01/10 06:36:55;;;;;;;21.30;12.60;;;;;;;4.48;100.00;100598.38;5091957;28;20040;-88
2023/01/10 06:39:21;;;;;;;18.90;9.77;;;;;;;4.57;100.00;100600.16;5070324;28;20047;-86
2023/01/10 06:41:48;;;;;;;11.03;6.40;;;;;;;4.51;100.00;100612.34;5059135;28;20161;-86
2023/01/10 06:44:15;;;;;;;9.43;5.67;;;;;;;4.52;100.00;100610.59;5069654;28;20477;-85
2023/01/10 06:46:41;;;;;;;13.63;6.87;;;;;;;4.62;100.00;100614.09;5031861;28;20040;-86
2023/01/10 06:49:08;;;;;;;14.90;7.07;;;;;;;4.53;100.00;100613.22;5074374;28;20060;-86
2023/01/10 06:51:35;;;;;;;11.77;6.50;;;;;;;4.50;100.00;100622.78;5061163;28;20047;-86
2023/01/10 06:54:01;;;;;;;13.67;6.67;;;;;;;4.47;100.00;100626.28;5079655;28;20044;-85
2023/01/10 06:56:28;;;;;;;14.43;6.97;;;;;;;4.48;100.00;100635.00;5037324;28;20041;-85
2023/01/10 06:58:55;;;;;;;13.07;7.20;;;;;;;4.45;100.00;100625.38;5058945;28;20523;-85
2023/01/10 07:01:21;;;;;;;18.53;8.80;;;;;;;4.57;100.00;100634.16;5042730;28;20041;-85
2023/01/10 07:03:48;;;;;;;21.10;7.93;;;;;;;4.49;100.00;100636.75;5061550;28;20029;-86
2023/01/10 07:06:15;;;;;;;16.97;6.97;;;;;;;4.52;100.00;100641.97;5046954;28;20036;-86
2023/01/10 07:08:44;;;;;;;19.17;8.37;;;;;;;4.63;100.00;100656.00;5066789;28;20103;-84
2023/01/10 07:11:12;;;;;;;16.47;7.87;;;;;;;4.58;100.00;100656.84;5054102;28;20102;-83
2023/01/10 07:13:39;;;;;;;17.57;8.40;;;;;;;4.61;100.00;100662.06;5064441;28;20040;-84
2023/01/10 07:16:11;;;;;;;16.87;8.30;;;;;;;4.65;100.00;100667.34;5089808;28;20421;-84
2023/01/10 07:18:39;;;;;;;17.00;8.07;;;;;;;4.61;100.00;100683.00;5107088;28;20040;-83
2023/01/10 07:21:06;;;;;;;14.00;7.37;;;;;;;4.63;100.00;100681.28;5073229;28;20039;-82
2023/01/10 07:23:33;;;;;;;16.10;8.33;;;;;;;4.74;100.00;100684.81;5054738;28;20036;-83
2023/01/10 07:26:04;;;;;;;16.73;8.50;;;;;;;4.70;100.00;100693.50;5069572;28;20488;-83
2023/01/10 07:28:33;;;;;;;19.63;8.73;;;;;;;4.72;100.00;100684.81;5053018;28;20067;-85
2023/01/10 07:31:01;;;;;;;19.27;8.87;;;;;;;4.75;100.00;100702.25;5069657;28;20420;-83
2023/01/10 07:33:28;;;;;;;19.43;8.27;;;;;;;4.77;100.00;100698.78;5079207;28;20036;-83
2023/01/10 07:35:54;;;;;;;17.23;8.63;;;;;;;4.80;100.00;100709.28;5073355;28;20032;-83
2023/01/10 07:38:23;;;;;;;15.20;7.77;;;;;;;4.81;100.00;100707.53;5050117;28;20099;-82
2023/01/10 07:40:50;;;;;;;14.57;8.67;;;;;;;4.79;100.00;100712.75;5053521;28;20138;-83
2023/01/10 07:43:17;;;;;;;19.43;8.97;;;;;;;4.91;100.00;100718.91;5044585;28;20401;-85
2023/01/10 07:45:44;;;;;;;22.43;8.93;;;;;;;4.91;100.00;100730.25;5022759;28;20040;-85
2023/01/10 07:48:13;;;;;;;19.40;8.63;;;;;;;4.92;100.00;100736.34;5039579;28;20126;-82
2023/01/10 07:50:40;;;;;;;19.63;9.10;;;;;;;4.90;100.00;100745.97;5039319;28;20417;-82
2023/01/10 07:53:07;;;;;;;24.27;10.13;;;;;;;5.02;100.00;100741.63;5047663;28;20491;-82
2023/01/10 07:55:37;;;;;;;19.07;9.53;;;;;;;4.90;100.00;100754.69;5043393;28;20093;-83
2023/01/10 07:58:06;;;;;;;18.87;8.90;;;;;;;4.94;100.00;100742.47;5059677;28;20126;-84
2023/01/10 08:00:34;;;;;;;20.97;10.00;;;;;;;4.99;100.00;100748.59;5042493;28;20079;-85
2023/01/10 08:03:01;;;;;;;19.03;8.73;;;;;;;5.02;100.00;100754.72;5042008;28;20036;-85
2023/01/10 08:05:28;;;;;;;17.87;7.90;;;;;;;4.92;100.00;100766.03;5046239;28;20056;-84
2023/01/10 08:07:58;;;;;;;15.03;7.60;;;;;;;4.90;100.00;100766.91;5038196;28;20044;-85
2023/01/10 08:10:26;;;;;;;14.83;7.50;;;;;;;4.96;100.00;100772.13;5043215;28;20436;-85
2023/01/10 08:12:52;;;;;;;19.30;8.40;;;;;;;5.02;100.00;100770.41;5055464;28;20040;-84
2023/01/10 08:15:19;;;;;;;12.93;7.50;;;;;;;4.97;100.00;100781.78;5038911;28;20070;-84
2023/01/10 08:17:45;;;;;;;14.60;6.43;;;;;;;4.95;100.00;100781.72;5038336;28;20041;-84
2023/01/10 08:20:12;;;;;;;13.87;7.37;;;;;;;4.98;100.00;100789.63;5054981;28;20081;-83
2023/01/10 08:22:39;;;;;;;21.20;8.93;;;;;;;5.06;100.00;100787.91;5048355;28;20398;-84
2023/01/10 08:25:06;;;;;;;14.27;7.60;;;;;;;5.06;100.00;100797.50;5038879;28;20043;-84
2023/01/10 08:27:33;;;;;;;16.13;7.67;;;;;;;5.15;100.00;100801.91;5054968;28;20041;-84
2023/01/10 08:29:59;;;;;;;13.87;7.93;;;;;;;5.15;100.00;100804.53;5035119;28;20045;-85
2023/01/10 08:32:26;;;;;;;19.13;8.00;;;;;;;5.15;100.00;100805.41;5011604;28;20049;-85
2023/01/10 08:34:53;;;;;;;15.37;6.63;;;;;;;5.25;100.00;100816.78;5022874;28;20045;-84
2023/01/10 08:37:19;;;;;;;13.20;7.20;;;;;;;5.21;100.00;100822.88;5030757;28;20045;-84
2023/01/10 08:39:46;;;;;;;15.37;7.93;;;;;;;5.27;100.00;100822.91;5043579;28;20052;-86
2023/01/10 08:42:13;;;;;;;17.43;8.10;;;;;;;5.27;100.00;100826.38;5059867;28;20047;-87
2023/01/10 08:44:39;;;;;;;14.17;7.57;;;;;;;5.42;100.00;100822.97;5027735;28;20518;-86
2023/01/10 08:47:07;;;;;;;18.57;7.53;;;;;;;5.34;100.00;100830.78;5036867;28;20045;-87
2023/01/10 08:49:34;;;;;;;14.87;7.90;;;;;;;5.41;100.00;100822.97;5020005;28;20041;-87
2023/01/10 08:52:02;;;;;;;18.57;8.13;;;;;;;5.54;100.00;100822.97;5052601;28;20041;-87
2023/01/10 08:54:29;;;;;;;18.10;8.67;;;;;;;5.59;100.00;100817.75;5048412;28;20135;-87
2023/01/10 08:56:55;;;;;;;16.60;7.93;;;;;;;5.60;100.00;100820.38;5035473;28;20073;-86
2023/01/10 08:59:22;;;;;;;18.43;9.40;;;;;;;5.68;100.00;100820.41;5003474;28;20047;-87
2023/01/10 09:01:49;;;;;;;18.20;8.57;;;;;;;5.63;100.00;100829.97;5035665;28;20052;-87
2023/01/10 09:04:16;;;;;;;16.83;8.43;;;;;;;5.71;100.00;100836.13;5055277;28;20064;-87
2023/01/10 09:06:43;;;;;;;16.07;8.77;;;;;;;5.75;100.00;100835.28;5014435;28;20042;-87
2023/01/10 09:09:09;;;;;;;15.53;7.93;;;;;;;5.78;100.00;100837.88;5044468;28;20043;-87
2023/01/10 09:11:36;;;;;;;17.23;8.17;;;;;;;5.76;100.00;100841.38;5032298;28;20564;-89
2023/01/10 09:14:03;;;;;;;14.23;7.80;;;;;;;5.69;100.00;100856.22;5042698;28;20032;-86
2023/01/10 09:16:29;;;;;;;16.37;7.77;;;;;;;5.76;100.00;100851.88;5075648;28;20039;-87
2023/01/10 09:18:56;;;;;;;15.40;7.63;;;;;;;5.74;100.00;100858.88;5059170;28;20480;-88
2023/01/10 09:21:23;;;;;;;18.73;8.33;;;;;;;5.85;100.00;100859.75;5058679;28;20044;-87
2023/01/10 09:23:49;;;;;;;12.77;7.87;;;;;;;6.02;100.00;100867.69;5059074;28;20040;-86
2023/01/10 09:26:16;;;;;;;11.73;6.47;;;;;;;5.92;100.00;100865.06;5058745;28;20389;-87
2023/01/10 09:28:43;;;;;;;13.83;7.07;;;;;;;5.94;100.00;100867.66;5055820;28;20464;-87
2023/01/10 09:31:10;;;;;;;16.13;8.27;;;;;;;5.92;100.00;100870.28;5055543;28;20055;-87
2023/01/10 09:33:40;;;;;;;15.80;8.13;;;;;;;6.00;100.00;100866.81;5039248;28;20158;-86
2023/01/10 09:36:14;;;;;;;15.07;6.93;;;;;;;5.91;100.00;100865.94;5024553;28;20036;-88
2023/01/10 09:38:41;;;;;;;14.90;7.23;;;;;;;6.02;100.00;100868.56;5039704;28;20509;-87
2023/01/10 09:41:27;;;;;;;13.23;7.10;;;;;;;6.02;100.00;100873.81;5055355;28;20497;-86
2023/01/10 09:44:03;;;;;;;14.23;7.20;;;;;;;6.16;100.00;100866.84;5039101;28;20043;-86
2023/01/10 09:47:09;;;;;;;14.03;6.63;;;;;;;6.15;100.00;100877.34;5055527;28;20386;-86
2023/01/10 09:49:51;;;;;;;17.17;8.33;;;;;;;6.18;100.00;100874.69;5058272;28;20045;-87
2023/01/10 09:52:23;;;;;;;12.97;7.43;;;;;;;6.31;100.00;100881.72;5041423;28;20051;-86
2023/01/10 09:54:51;;;;;;;13.50;7.47;;;;;;;6.32;100.00;100883.47;5049896;28;20394;-86
2023/01/10 09:57:19;;;;;;;16.50;7.50;;;;;;;6.29;100.00;100874.69;5069839;28;20501;-87
2023/01/10 09:59:49;;;;;;;12.33;7.00;;;;;;;6.30;100.00;100874.69;5050933;28;20041;-88
2023/01/10 10:02:19;;;;;;;15.33;7.20;;;;;;;6.32;100.00;100877.34;5017829;28;20041;-87
2023/01/10 10:05:00;;;;;;;13.80;7.43;;;;;;;6.42;100.00;100895.72;5035031;28;20486;-87
2023/01/10 10:07:26;;;;;;;11.77;6.33;;;;;;;6.44;100.00;100887.81;5066608;28;20045;-86
2023/01/10 10:09:53;;;;;;;17.90;7.27;;;;;;;6.39;100.00;100884.31;5022041;28;20497;-86
2023/01/10 10:12:50;;;;;;;12.80;6.80;;;;;;;6.43;100.00;100901.84;5038283;28;20085;-87
2023/01/10 10:15:33;;;;;;;13.60;6.63;;;;;;;6.39;100.00;100903.59;5054770;28;20036;-87
2023/01/10 10:18:22;;;;;;;14.50;7.40;;;;;;;6.46;100.00;100905.31;5038952;28;20044;-85
2023/01/10 10:21:13;;;;;;;12.63;7.13;;;;;;;6.50;100.00;100900.97;5038486;28;20029;-86
2023/01/10 10:24:12;;;;;;;13.43;6.90;;;;;;;6.48;100.00;100900.97;5034318;28;20041;-87
2023/01/10 10:26:59;;;;;;;14.90;7.50;;;;;;;6.43;100.00;100905.31;5053362;28;20040;-85
2023/01/10 10:29:58;;;;;;;16.87;8.13;;;;;;;6.53;100.00;100903.56;5038028;28;20391;-87
2023/01/10 10:32:55;;;;;;;13.33;6.37;;;;;;;6.62;100.00;100906.19;5006397;28;20049;-87
2023/01/10 10:35:26;;;;;;;14.10;6.83;;;;;;;6.59;100.00;100890.47;5036973;28;20042;-85
2023/01/10 10:37:55;;;;;;;13.27;7.27;;;;;;;6.64;100.00;100906.19;5037386;28;20165;-86
2023/01/10 10:40:24;;;;;;;16.63;9.87;;;;;;;6.70;100.00;100903.56;5037425;28;20049;-85
2023/01/10 10:42:53;;;;;;;19.87;9.90;;;;;;;6.77;100.00;100900.94;5037816;28;20221;-85
2023/01/10 10:45:39;;;;;;;14.90;8.27;;;;;;;6.86;100.00;100907.94;5027744;28;20041;-85
2023/01/10 10:48:26;;;;;;;10.53;5.80;;;;;;;6.88;100.00;100923.69;5033021;28;20044;-86
2023/01/10 10:50:57;;;;;;;10.20;5.53;;;;;;;6.90;100.00;100929.81;5031673;28;20037;-84
2023/01/10 10:53:24;;;;;;;13.87;6.43;;;;;;;6.95;100.00;100928.06;5043820;28;20052;-85
2023/01/10 10:55:52;;;;;;;12.03;5.73;;;;;;;6.93;100.00;100927.19;5060503;28;20583;-85
2023/01/10 10:58:18;;;;;;;9.60;5.53;;;;;;;6.88;100.00;100927.19;5028362;28;20048;-86
2023/01/10 11:00:46;;;;;;;12.47;5.77;;;;;;;6.90;100.00;100935.09;5043041;28;20081;-85
2023/01/10 11:03:37;;;;;;;9.30;5.40;;;;;;;7.01;100.00;100941.19;5042595;28;20041;-84
2023/01/10 11:06:06;;;;;;;12.30;6.20;;;;;;;7.06;100.00;100947.28;5043578;28;20039;-84
2023/01/10 11:08:37;;;;;;;10.57;4.83;;;;;;;6.93;100.00;100946.44;5049530;28;20037;-86
2023/01/10 11:11:13;;;;;;;17.70;5.43;;;;;;;6.89;100.00;100954.31;5045338;28;20036;-85
2023/01/10 11:13:47;;;;;;;11.10;5.43;;;;;;;6.83;100.00;100960.47;5037525;28;20047;-85
2023/01/10 11:16:26;;;;;;;10.35;4.75;;;;;;;6.73;100.00;100961.34;5056243;28;20047;-89
2023/01/10 11:19:25;;;;;;;16.40;6.10;;;;;;;6.90;100.00;100953.47;5057801;28;20090;-85
2023/01/10 11:21:55;;;;;;;7.57;4.13;;;;;;;6.94;100.00;100956.06;5021588;28;20047;-86
2023/01/10 11:24:30;;;;;;;8.87;4.80;;;;;;;6.84;100.00;100956.97;5055513;28;20119;-86
2023/01/10 11:26:59;;;;;;;10.07;4.40;;;;;;;6.87;100.00;100948.19;5044258;28;20045;-85
2023/01/10 11:29:41;;;;;;;12.63;5.67;;;;;;;6.85;100.00;100948.19;5039733;28;20044;-87
2023/01/10 11:32:13;;;;;;;10.13;5.13;;;;;;;6.74;100.00;100945.59;5055344;28;20127;-85
2023/01/10 11:34:41;;;;;;;11.23;5.23;;;;;;;6.93;100.00;100946.44;5011491;23;20098;-80
2023/01/10 11:37:23;;;;;;;17.43;8.97;;;;;;;6.96;100.00;100950.81;5012177;28;20071;-80
2023/01/10 11:40:14;;;;;;;8.13;4.23;;;;;;;7.03;100.00;100957.81;5035228;28;20045;-80
2023/01/10 11:42:41;;;;;;;11.07;5.80;;;;;;;7.05;100.00;100954.28;4979510;28;20046;-80
2023/01/10 11:45:20;;;;;;;8.40;4.37;;;;;;;6.94;100.00;100953.44;4967948;28;20038;-79
2023/01/10 11:47:48;;;;;;;10.03;4.80;;;;;;;6.91;100.00;100952.59;5013155;28;20042;-80